Latest Weather Observations for Darwin Airport

IDD60801

Issued at 6:31 pm CST Saturday 6 February 2016 (issued every 30 minutes, with the page automatically refreshed every 10 minutes)

About weather observations | Map of weather stations | Latest weather observations for NT | Other Formats
Station Details ID: 014015 Name: DARWIN AIRPORT Lat: -12.42 Lon: 130.89 Height: 30.4 m
Data from the previous 72 hours. | See also: Recent months at Darwin Airport
Date/Time
CST
Temp
°C
App
Temp
°C
Dew
Point
Rel
Hum
%
Delta-T
°C
Wind Press
QNH
hPa
Press
MSL
hPa
Rain
since 9 am
mm
Dir
 
Spd
km/h
Gust
km/h
Spd
kts
Gust
kts
06/06:00pm 31.9 34.2 22.7 58 6.3 WSW 15 19 8 10 1005.2 1004.9 0.2
06/05:30pm 32.5 34.7 21.9 53 7.2 WSW 13 17 7 9 1004.9 1004.6 0.2
06/05:00pm 32.4 33.6 21.5 52 7.4 SW 17 24 9 13 1004.7 1004.4 0.2
06/04:30pm 31.8 34.1 22.1 56 6.6 SSW 13 22 7 12 1004.6 1004.3 0.2
06/04:00pm 32.1 34.7 23.3 59 6.1 SSW 15 24 8 13 1004.8 1004.5 0.2
06/03:30pm 31.2 34.3 22.8 61 5.8 SW 11 17 6 9 1005.1 1004.8 0.2
06/03:00pm 30.8 33.5 22.8 62 5.5 WSW 13 19 7 10 1005.4 1005.1 0.2
06/02:30pm 30.9 33.2 23.4 64 5.2 SW 17 22 9 12 1005.8 1005.5 0.2
06/02:00pm 30.7 33.5 23.6 66 4.9 WSW 15 24 8 13 1006.2 1005.9 0.2
06/01:30pm 31.2 33.9 24.2 66 4.9 W 17 26 9 14 1006.6 1006.3 0.2
06/01:00pm 30.2 33.4 23.7 68 4.5 W 13 19 7 10 1007.3 1007.0 0.2
06/12:30pm 29.3 31.2 22.7 67 4.5 WSW 17 28 9 15 1007.9 1007.6 0.2
06/12:00pm 28.7 31.4 22.8 70 4.0 SW 13 19 7 10 1008.4 1008.1 0.2
06/11:30am 28.6 31.0 23.7 75 3.4 WSW 17 28 9 15 1008.8 1008.5 0.2
06/11:00am 27.9 29.3 22.6 73 3.6 W 19 24 10 13 1009.1 1008.8 0.2
06/10:37am 27.8 29.7 22.8 74 3.4 W 17 22 9 12 1009.2 1009.0 0.2
06/10:30am 27.9 30.4 23.1 75 3.3 WSW 15 20 8 11 1009.2 1009.0 0.2
06/10:00am 27.1 29.9 23.0 78 2.8 SW 13 17 7 9 1009.4 1009.2 0.0
06/09:30am 27.1 29.8 23.5 81 2.5 SSW 15 20 8 11 1009.5 1009.3 0.0
06/09:00am 27.1 28.5 23.6 81 2.4 SSW 22 28 12 15 1009.5 1009.3 7.6
06/08:30am 27.1 29.1 23.9 82 2.2 WSW 20 28 11 15 1009.3 1009.1 7.6
06/08:00am 26.5 29.3 24.3 88 1.5 SW 17 26 9 14 1008.6 1008.3 7.6
06/07:30am 26.3 28.6 24.1 88 1.5 SW 19 26 10 14 1008.3 1008.0 7.6
06/07:00am 26.2 29.0 24.3 89 1.3 SSW 17 24 9 13 1007.7 1007.4 7.6
06/06:30am 26.3 29.1 24.3 89 1.4 WSW 17 20 9 11 1007.6 1007.3 7.6
06/06:00am 25.9 28.8 24.5 92 1.0 W 17 22 9 12 1007.2 1006.9 7.6
06/05:30am 25.4 28.1 24.2 93 0.8 NW 17 26 9 14 1007.0 1006.7 7.2
06/05:00am 25.6 25.5 24.2 92 1.0 W 32 46 17 25 1006.5 1006.2 4.8
06/04:58am 25.9 25.8 24.3 91 1.1 W 32 46 17 25 1006.5 1006.2 4.2
06/04:48am 26.2 26.4 23.4 84 1.9 WNW 28 35 15 19 1006.3 1006.0 4.0
06/04:30am 27.2 32.3 25.5 90 1.2 W 9 11 5 6 1006.1 1005.8 4.0
06/04:00am 27.3 31.4 25.2 88 1.5 WSW 13 17 7 9 1006.4 1006.1 4.0
06/03:30am 27.4 31.5 25.7 90 1.2 WNW 15 19 8 10 1006.4 1006.1 4.0
06/03:00am 27.3 30.7 25.2 88 1.5 WNW 17 22 9 12 1006.5 1006.2 4.0
06/02:30am 27.1 30.5 25.2 89 1.3 WNW 17 22 9 12 1006.9 1006.6 4.0
06/02:00am 26.9 30.5 25.0 89 1.3 WNW 15 19 8 10 1007.3 1007.0 4.0
06/01:30am 26.9 30.4 24.9 89 1.4 WNW 15 17 8 9 1007.7 1007.4 4.0
06/01:00am 26.7 31.3 25.3 92 1.0 W 11 13 6 7 1007.8 1007.5 4.0
06/12:30am 26.4 31.0 25.3 94 0.8 WNW 11 13 6 7 1008.0 1007.7 4.0
06/12:00am 26.0 31.4 25.4 96 0.4 WNW 7 9 4 5 1008.3 1008.0 4.0
 
Date/Time
CST
Temp
°C
App
Temp
°C
Dew
Point
Rel
Hum
%
Delta-T
°C
Wind Press
QNH
hPa
Press
MSL
hPa
Rain
since 9 am
mm
Dir
 
Spd
km/h
Gust
km/h
Spd
kts
Gust
kts
05/11:30pm 26.1 31.0 25.2 95 0.6 NW 9 11 5 6 1008.2 1007.9 4.0
05/11:00pm 25.9 31.0 24.9 94 0.7 NNW 7 11 4 6 1008.3 1008.0 4.0
05/10:30pm 25.8 30.4 24.8 94 0.7 N 9 11 5 6 1008.4 1008.1 4.0
05/10:00pm 25.7 29.3 24.3 92 1.0 NW 13 15 7 8 1008.3 1008.0 4.0
05/09:30pm 26.0 30.4 25.0 94 0.7 WNW 11 13 6 7 1008.5 1008.2 4.0
05/09:00pm 26.0 30.1 24.6 92 1.0 WSW 11 15 6 8 1008.8 1008.5 4.0
05/08:37pm 26.7 30.9 26.0 96 0.5 WSW 15 26 8 14 1008.4 1008.1 3.8
05/08:30pm 26.5 32.1 25.8 96 0.5 S 7 15 4 8 1008.1 1007.8 3.8
05/08:00pm 26.6 31.9 25.9 96 0.5 SE 9 11 5 6 1007.7 1007.4 3.8
05/07:30pm 26.7 31.6 25.9 95 0.6 SSE 11 13 6 7 1007.5 1007.2 2.8
05/07:00pm 27.0 31.9 25.9 94 0.8 SSE 11 13 6 7 1007.2 1006.9 2.0
05/06:30pm 27.8 32.5 25.5 87 1.6 S 11 15 6 8 1007.1 1006.8 1.4
05/06:00pm 28.3 33.6 25.8 86 1.8 SW 9 11 5 6 1006.5 1006.2 1.4
05/05:30pm 28.3 33.4 25.5 85 2.0 WNW 9 13 5 7 1005.9 1005.6 1.4
05/05:00pm 27.6 33.2 25.8 90 1.3 NNW 7 9 4 5 1005.8 1005.5 1.4
05/04:30pm 27.6 31.6 25.0 86 1.8 WSW 13 17 7 9 1005.4 1005.1 1.4
05/04:00pm 26.9 30.4 24.9 89 1.4 WSW 15 19 8 10 1005.4 1005.1 1.4
05/03:30pm 26.7 29.8 24.1 86 1.8 SW 15 20 8 11 1005.8 1005.5 0.8
05/03:00pm 28.0 30.1 24.7 82 2.3 WSW 22 33 12 18 1005.3 1005.0 0.2
05/02:54pm 29.0 30.1 24.3 76 3.3 WNW 26 33 14 18 1005.5 1005.2 0.0
05/02:30pm 31.0 32.6 25.8 74 3.7 WNW 28 33 15 18 1005.5 1005.2 0.0
05/02:00pm 31.5 32.4 25.3 69 4.4 WNW 30 35 16 19 1005.7 1005.4 0.0
05/01:30pm 32.2 34.3 25.3 67 4.9 WNW 24 33 13 18 1006.4 1006.1 0.0
05/01:00pm 31.0 33.2 24.3 67 4.7 NW 20 28 11 15 1007.0 1006.7 0.0
05/12:30pm 31.0 34.2 24.4 68 4.6 NW 15 20 8 11 1007.3 1007.0 0.0
05/12:00pm 31.8 34.9 24.2 64 5.3 NW 15 22 8 12 1007.6 1007.3 0.0
05/11:30am 31.5 34.9 24.1 65 5.2 WSW 13 19 7 10 1008.0 1007.7 0.0
05/11:00am 31.1 33.8 24.2 66 4.8 W 17 24 9 13 1008.4 1008.1 0.0
05/10:30am 30.7 34.3 24.3 68 4.5 W 13 19 7 10 1008.8 1008.5 0.0
05/10:00am 30.0 33.4 24.1 70 4.1 SW 13 17 7 9 1009.1 1008.8 0.0
05/09:30am 29.3 33.5 24.7 76 3.2 SW 11 17 6 9 1009.1 1008.8 0.0
05/09:00am 28.5 33.6 24.6 79 2.7 SSW 6 9 3 5 1009.1 1008.8 0.2
05/08:30am 27.3 33.0 25.0 87 1.6 SSE 4 7 2 4 1009.1 1008.8 0.2
05/08:00am 26.6 31.9 24.9 90 1.2 E 6 7 3 4 1008.8 1008.5 0.2
05/07:30am 25.8 31.8 24.8 94 0.7 E 2 6 1 3 1008.3 1008.0 0.2
05/07:00am 25.4 30.3 24.7 96 0.5 E 7 7 4 4 1008.0 1007.7 0.2
05/06:30am 25.3 30.4 24.6 96 0.5 ESE 6 7 3 4 1007.5 1007.2 0.2
05/06:00am 25.3 30.4 24.6 96 0.5 ESE 6 7 3 4 1007.2 1006.9 0.2
05/05:30am 25.3 30.1 24.4 95 0.6 SE 7 9 4 5 1007.2 1006.9 0.2
05/05:00am 25.3 29.4 24.6 96 0.5 SE 11 15 6 8 1007.2 1006.9 0.2
05/04:30am 25.4 30.0 24.7 96 0.5 SSE 9 15 5 8 1007.3 1007.0 0.2
05/04:00am 25.5 29.7 24.8 96 0.5 SE 11 15 6 8 1007.2 1006.9 0.2
05/03:30am 25.5 29.7 24.8 96 0.5 SE 11 13 6 7 1007.5 1007.2 0.2
05/03:17am 25.5 29.6 24.6 95 0.6 SE 11 13 6 7 1007.6 1007.3 0.2
05/03:00am 25.5 29.2 24.6 95 0.6 SE 13 17 7 9 1007.8 1007.5 0.2
05/02:30am 25.5 29.2 24.6 95 0.6 SE 13 17 7 9 1008.1 1007.8 0.2
05/02:00am 25.6 29.0 24.6 94 0.7 SE 15 19 8 10 1008.4 1008.1 0.2
05/01:30am 25.8 29.1 24.5 92 0.9 SE 15 19 8 10 1008.5 1008.2 0.2
05/01:00am 26.0 29.7 24.6 92 1.0 SE 13 17 7 9 1008.8 1008.5 0.2
05/12:30am 26.2 30.7 24.6 91 1.1 SE 9 13 5 7 1009.4 1009.2 0.2
05/12:00am 26.3 31.2 24.7 91 1.1 SE 7 9 4 5 1009.7 1009.5 0.2
 
Date/Time
CST
Temp
°C
App
Temp
°C
Dew
Point
Rel
Hum
%
Delta-T
°C
Wind Press
QNH
hPa
Press
MSL
hPa
Rain
since 9 am
mm
Dir
 
Spd
km/h
Gust
km/h
Spd
kts
Gust
kts
04/11:30pm 26.3 31.0 24.9 92 1.0 SE 9 9 5 5 1009.6 1009.4 0.2
04/11:00pm 26.3 30.9 24.7 91 1.1 ESE 9 11 5 6 1009.6 1009.4 0.2
04/10:30pm 26.3 30.7 25.0 92 0.9 ESE 11 13 6 7 1009.7 1009.5 0.2
04/10:00pm 26.1 30.1 25.0 94 0.8 SE 13 15 7 8 1009.5 1009.3 0.2
04/09:30pm 26.1 30.0 24.8 92 0.9 SSE 13 17 7 9 1009.2 1009.0 0.2
04/09:00pm 26.3 30.3 25.0 92 0.9 SSE 13 17 7 9 1008.8 1008.5 0.2
04/08:30pm 26.6 30.1 24.9 90 1.2 SSE 15 19 8 10 1008.6 1008.3 0.0
04/08:00pm 26.9 29.9 24.6 87 1.6 SSE 17 20 9 11 1008.0 1007.7 0.0
04/07:30pm 27.8 31.2 25.2 86 1.8 SW 17 28 9 15 1007.5 1007.2 0.0
04/07:00pm 29.4 32.4 24.7 76 3.3 WSW 17 20 9 11 1007.1 1006.8 0.0
04/06:30pm 29.6 32.6 24.0 72 3.9 WSW 15 20 8 11 1006.6 1006.3 0.0
04/06:00pm 30.0 32.4 23.6 68 4.4 WSW 17 24 9 13 1006.2 1005.9 0.0
04/05:30pm 30.0 32.1 23.8 69 4.3 W 19 26 10 14 1006.1 1005.8 0.0
04/05:00pm 30.5 32.4 23.7 67 4.7 W 20 28 11 15 1005.7 1005.4 0.0
04/04:30pm 31.3 32.7 23.5 63 5.4 W 22 28 12 15 1005.7 1005.4 0.0
04/04:00pm 30.9 32.2 24.0 66 4.8 WNW 24 30 13 16 1005.4 1005.1 0.0
04/03:30pm 31.5 33.5 25.1 69 4.5 WNW 24 30 13 16 1005.8 1005.5 0.0
04/03:00pm 30.9 33.1 24.2 67 4.7 WNW 20 26 11 14 1006.0 1005.7 0.0
04/02:30pm 30.4 33.2 25.0 73 3.8 NW 19 26 10 14 1006.4 1006.1 0.0
04/02:00pm 30.5 33.2 24.8 71 4.0 NW 19 24 10 13 1006.7 1006.4 0.0
04/01:30pm 30.5 33.4 25.1 73 3.8 NW 19 26 10 14 1007.2 1006.9 0.0
04/01:00pm 31.2 33.4 24.2 66 4.9 NW 20 26 11 14 1007.8 1007.5 0.0
04/12:30pm 30.7 33.7 24.7 70 4.2 WNW 17 22 9 12 1008.1 1007.8 0.0
04/12:00pm 30.2 33.9 25.2 74 3.5 WNW 15 22 8 12 1008.7 1008.4 0.0
04/11:30am 30.4 34.0 25.0 73 3.8 WSW 15 19 8 10 1009.2 1009.0 0.0
04/11:00am 30.0 34.0 24.4 72 3.9 W 11 15 6 8 1009.5 1009.3 0.0
04/10:30am 29.6 33.5 24.3 73 3.7 W 11 17 6 9 1009.8 1009.6 0.0
04/10:00am 28.9 33.3 25.1 80 2.7 W 11 13 6 7 1009.9 1009.7 0.0
04/09:30am 28.4 32.6 25.3 83 2.2 W 13 17 7 9 1009.9 1009.7 0.0
04/09:00am 27.7 32.4 25.6 88 1.5 W 11 13 6 7 1009.9 1009.7 2.4
04/08:30am 27.5 34.7 26.7 95 0.6 ENE 2 15 1 8 1009.9 1009.7 2.4
04/08:00am 27.0 34.4 26.4 96 0.4 CALM 0 0 0 0 1009.9 1009.7 2.4
04/07:30am 26.8 34.0 26.2 96 0.4 CALM 0 0 0 0 1009.7 1009.5 2.4
04/07:00am 26.7 34.0 26.3 98 0.3 CALM 0 2 0 1 1009.6 1009.4 2.4
04/06:30am 26.7 33.1 26.1 96 0.4 SW 4 7 2 4 1009.3 1009.1 2.4
04/06:00am 26.7 32.7 26.1 96 0.4 SW 6 7 3 4 1009.0 1008.7 2.4
04/05:30am 26.8 34.0 26.2 96 0.4 CALM 0 0 0 0 1008.6 1008.3 2.2
04/05:00am 26.8 34.2 26.4 98 0.3 CALM 0 0 0 0 1008.2 1007.9 2.2
04/04:30am 27.0 32.9 26.2 95 0.6 SW 7 9 4 5 1007.9 1007.6 2.0
04/04:00am 27.0 32.9 26.2 95 0.6 SW 7 7 4 4 1007.7 1007.4 2.0
04/03:30am 27.1 32.5 26.0 94 0.8 SW 9 9 5 5 1007.9 1007.6 1.8
04/03:00am 27.1 32.5 26.0 94 0.8 SW 9 11 5 6 1007.9 1007.6 1.6
04/02:30am 27.3 31.7 25.7 91 1.1 SW 13 15 7 8 1008.1 1007.8 1.6
04/02:00am 27.4 31.1 25.8 91 1.1 WSW 17 20 9 11 1008.1 1007.8 1.4
04/01:30am 27.5 30.7 25.8 90 1.2 WSW 20 30 11 16 1008.3 1008.0 1.4
04/01:00am 27.8 32.2 26.3 91 1.1 W 15 22 8 12 1008.7 1008.4 1.4
04/12:30am 27.7 33.2 26.2 91 1.1 WSW 9 11 5 6 1009.1 1008.8 1.4
04/12:13am 27.7 33.2 26.2 91 1.1 WSW 9 11 5 6 1009.4 1009.2 1.4
04/12:00am 27.7 32.8 26.2 91 1.1 WSW 11 13 6 7 1009.5 1009.3 1.4
 
Date/Time
CST
Temp
°C
App
Temp
°C
Dew
Point
Rel
Hum
%
Delta-T
°C
Wind Press
QNH
hPa
Press
MSL
hPa
Rain
since 9 am
mm
Dir
 
Spd
km/h
Gust
km/h
Spd
kts
Gust
kts
03/11:52pm 27.7 32.7 26.0 90 1.2 W 11 13 6 7 1009.6 1009.4 1.2
03/11:30pm 27.9 32.1 25.3 86 1.8 WSW 13 15 7 8 1009.8 1009.6 1.0
03/11:00pm 28.0 31.9 25.4 86 1.8 WSW 15 22 8 12 1009.6 1009.4 1.0
03/10:30pm 28.7 31.4 25.7 84 2.1 W 22 30 12 16 1009.6 1009.4 1.0
03/10:00pm 28.4 32.3 26.0 87 1.7 WNW 17 22 9 12 1009.1 1008.8 1.0
03/09:30pm 28.4 33.2 26.3 88 1.5 NW 13 17 7 9 1009.0 1008.7 0.8
03/09:00pm 28.3 33.1 26.2 88 1.5 W 13 17 7 9 1008.7 1008.4 0.8
03/08:30pm 28.3 33.4 26.2 88 1.5 W 11 15 6 8 1008.5 1008.2 0.8
03/08:00pm 28.2 32.9 26.1 88 1.5 W 13 17 7 9 1007.9 1007.6 0.8
03/07:30pm 28.2 32.9 26.1 88 1.5 WSW 13 17 7 9 1007.8 1007.5 0.8
03/07:00pm 28.3 32.5 25.9 87 1.7 W 15 19 8 10 1007.4 1007.1 0.4

Other Formats:

Comma delimited format used in spreadsheet applications
http://www.bom.gov.au/fwo/IDD60801/IDD60801.94120.axf

JavaScript Object Notation format (JSON) in row-major order
http://www.bom.gov.au/fwo/IDD60801/IDD60801.94120.json